createdAt,value
2022-08-11T00:02:00.563Z,17.50
2022-08-11T00:04:35.919Z,17.50
2022-08-11T00:07:04.869Z,17.50
2022-08-11T00:09:39.417Z,17.50
2022-08-11T00:12:17.469Z,17.50
2022-08-11T00:14:46.559Z,17.50
2022-08-11T00:17:15.900Z,17.40
2022-08-11T00:20:14.326Z,17.40
2022-08-11T00:22:41.867Z,17.20
2022-08-11T00:25:17.819Z,17.20
2022-08-11T00:27:47.157Z,17.10
2022-08-11T00:30:15.701Z,17.00
2022-08-11T00:32:56.454Z,17.00
2022-08-11T00:35:52.087Z,17.00
2022-08-11T00:38:19.090Z,17.00
2022-08-11T00:41:18.460Z,16.90
2022-08-11T00:44:36.648Z,16.90
2022-08-11T00:47:31.694Z,17.00
2022-08-11T00:50:39.640Z,17.10
2022-08-11T00:53:31.415Z,17.00
2022-08-11T00:56:39.847Z,17.00
2022-08-11T00:59:35.605Z,17.00
2022-08-11T01:02:20.111Z,17.00
2022-08-11T01:05:25.336Z,17.00
2022-08-11T01:08:24.703Z,16.90
2022-08-11T01:11:12.865Z,16.90
2022-08-11T01:13:58.061Z,16.90
2022-08-11T01:17:25.122Z,17.00
2022-08-11T01:20:47.373Z,17.20
2022-08-11T01:23:53.322Z,17.50
2022-08-11T01:26:44.364Z,17.50
2022-08-11T01:29:39.533Z,17.60
2022-08-11T01:32:47.134Z,17.80
2022-08-11T01:36:00.685Z,17.80
2022-08-11T01:38:51.409Z,17.70
2022-08-11T01:42:01.624Z,17.60
2022-08-11T01:44:47.335Z,17.50
2022-08-11T01:47:52.891Z,17.40
2022-08-11T01:51:17.529Z,17.40
2022-08-11T01:54:15.672Z,17.40
2022-08-11T01:56:57.172Z,17.40
2022-08-11T01:59:33.506Z,17.30
2022-08-11T02:02:46.171Z,17.20
2022-08-11T02:06:01.316Z,17.10
2022-08-11T02:09:04.108Z,16.90
2022-08-11T02:11:37.550Z,16.80
2022-08-11T02:14:27.078Z,16.70
2022-08-11T02:17:16.095Z,16.60
2022-08-11T02:20:17.992Z,16.60
2022-08-11T02:24:06.491Z,16.50
2022-08-11T02:26:47.289Z,16.50
2022-08-11T02:29:46.011Z,16.50
2022-08-11T02:32:39.268Z,16.40
2022-08-11T02:35:59.212Z,16.40
2022-08-11T02:38:52.383Z,16.40
2022-08-11T02:42:35.180Z,16.30
2022-08-11T02:45:46.378Z,16.30
2022-08-11T02:48:49.535Z,16.30
2022-08-11T02:52:07.233Z,16.30
2022-08-11T02:55:06.064Z,16.20
2022-08-11T02:57:44.195Z,16.10
2022-08-11T03:00:15.585Z,16.10
2022-08-11T03:03:26.126Z,16.00
2022-08-11T03:06:38.506Z,15.90
2022-08-11T03:09:25.269Z,16.00
2022-08-11T03:12:29.617Z,15.90
2022-08-11T03:15:58.050Z,15.90
2022-08-11T03:18:37.652Z,15.80
2022-08-11T03:21:21.667Z,15.90
2022-08-11T03:24:11.617Z,15.80
2022-08-11T03:27:02.531Z,15.70
2022-08-11T03:29:43.930Z,15.70
2022-08-11T03:33:06.584Z,15.70
2022-08-11T03:35:45.660Z,15.70
2022-08-11T03:38:17.793Z,15.70
2022-08-11T03:42:01.855Z,15.80
2022-08-11T03:44:25.836Z,15.80
2022-08-11T03:47:24.432Z,15.80
2022-08-11T03:49:57.054Z,15.80
2022-08-11T03:53:07.559Z,15.80
2022-08-11T03:56:24.086Z,15.80
2022-08-11T03:59:28.835Z,15.70
2022-08-11T04:02:14.219Z,15.60
2022-08-11T04:05:52.512Z,15.70
2022-08-11T04:09:06.166Z,15.60
2022-08-11T04:12:35.768Z,15.60
2022-08-11T04:16:12.825Z,15.60
2022-08-11T04:19:46.291Z,15.60
2022-08-11T04:22:50.216Z,15.60
2022-08-11T04:25:57.656Z,15.60
2022-08-11T04:29:02.180Z,15.60
2022-08-11T04:32:25.811Z,15.60
2022-08-11T04:35:31.938Z,15.60
2022-08-11T04:38:43.390Z,15.60
2022-08-11T04:41:19.180Z,15.60
2022-08-11T04:44:29.464Z,15.70
2022-08-11T04:48:01.450Z,15.70
2022-08-11T04:51:37.755Z,15.70
2022-08-11T04:55:12.662Z,15.60
2022-08-11T04:58:35.992Z,15.60
2022-08-11T05:01:44.156Z,15.70
2022-08-11T05:04:47.961Z,15.80
2022-08-11T05:08:03.615Z,15.80
2022-08-11T05:10:45.932Z,15.80
2022-08-11T05:13:48.518Z,15.80
2022-08-11T05:16:49.514Z,15.80
2022-08-11T05:19:38.385Z,15.80
2022-08-11T05:22:30.368Z,15.90
2022-08-11T05:26:47.612Z,16.00
2022-08-11T05:28:55.960Z,16.10
2022-08-11T05:31:55.309Z,16.30
2022-08-11T05:34:54.242Z,16.40
2022-08-11T05:37:30.368Z,16.40
2022-08-11T05:40:31.417Z,16.60
2022-08-11T05:43:31.867Z,16.60
2022-08-11T05:46:24.186Z,16.70
2022-08-11T05:49:11.580Z,16.90
2022-08-11T05:52:05.442Z,17.00
2022-08-11T05:55:05.969Z,17.30
2022-08-11T05:57:50.440Z,17.60
2022-08-11T06:00:20.121Z,17.70
2022-08-11T06:03:00.927Z,17.80
2022-08-11T06:05:43.322Z,18.00
2022-08-11T06:08:13.501Z,18.10
2022-08-11T06:10:43.826Z,18.10
2022-08-11T06:13:16.699Z,18.20
2022-08-11T06:15:55.983Z,18.40
2022-08-11T06:18:23.804Z,18.50
2022-08-11T06:20:55.528Z,18.60
2022-08-11T06:23:30.801Z,18.70
2022-08-11T06:25:59.398Z,18.80
2022-08-11T06:28:33.716Z,18.90
2022-08-11T06:31:03.051Z,19.20
2022-08-11T06:33:56.583Z,19.40
2022-08-11T06:36:45.401Z,19.50
2022-08-11T06:39:40.777Z,19.70
2022-08-11T06:42:34.195Z,19.80
2022-08-11T06:45:35.408Z,20.00
2022-08-11T06:48:03.206Z,20.20
2022-08-11T06:50:50.421Z,20.30
2022-08-11T06:53:20.404Z,20.30
2022-08-11T06:56:08.730Z,20.40
2022-08-11T06:58:59.383Z,20.50
2022-08-11T07:01:59.179Z,20.60
2022-08-11T07:04:43.320Z,20.70
2022-08-11T07:07:59.252Z,20.90
2022-08-11T07:11:39.904Z,21.00
2022-08-11T07:14:27.025Z,21.20
2022-08-11T07:16:56.320Z,21.40
2022-08-11T07:19:47.982Z,21.50
2022-08-11T07:22:34.232Z,21.50
2022-08-11T07:25:36.390Z,21.60
2022-08-11T07:28:30.099Z,21.70
2022-08-11T07:31:08.102Z,21.90
2022-08-11T07:34:08.454Z,22.10
2022-08-11T07:36:46.843Z,22.20
2022-08-11T07:39:29.510Z,22.40
2022-08-11T07:41:59.898Z,22.60
2022-08-11T07:44:35.030Z,22.80
2022-08-11T07:47:22.237Z,22.90
2022-08-11T07:50:12.425Z,23.00
2022-08-11T07:52:40.845Z,23.20
2022-08-11T07:55:17.867Z,23.30
2022-08-11T07:58:16.456Z,23.50
2022-08-11T08:01:21.294Z,23.50
2022-08-11T08:04:11.132Z,23.70
2022-08-11T08:06:58.292Z,23.80
2022-08-11T08:09:44.577Z,24.00
2022-08-11T08:12:32.197Z,24.00
2022-08-11T08:15:20.042Z,24.00
2022-08-11T08:18:20.426Z,24.10
2022-08-11T08:20:52.462Z,24.20
2022-08-11T08:23:36.003Z,24.40
2022-08-11T08:26:26.714Z,24.50
2022-08-11T08:29:16.268Z,24.50
2022-08-11T08:31:45.068Z,24.50
2022-08-11T08:34:14.350Z,24.50
2022-08-11T08:36:45.129Z,24.60
2022-08-11T08:39:14.507Z,24.60
2022-08-11T08:41:43.963Z,24.70
2022-08-11T08:47:06.451Z,24.90
2022-08-11T08:49:42.123Z,25.00
2022-08-11T08:52:25.371Z,25.20
2022-08-11T08:55:05.804Z,25.40
2022-08-11T08:57:39.395Z,25.50
2022-08-11T09:00:12.940Z,25.60
2022-08-11T09:02:43.955Z,25.70
2022-08-11T09:05:12.242Z,25.80
2022-08-11T09:07:40.932Z,25.90
2022-08-11T09:10:12.173Z,25.90
2022-08-11T09:12:42.902Z,26.10
2022-08-11T09:15:12.825Z,26.20
2022-08-11T09:17:52.264Z,26.40
2022-08-11T09:20:29.514Z,26.50
2022-08-11T09:26:30.374Z,26.60
2022-08-11T09:29:00.767Z,26.80
2022-08-11T09:31:38.959Z,26.80
2022-08-11T09:34:09.654Z,26.90
2022-08-11T09:37:00.137Z,27.00
2022-08-11T09:39:49.125Z,27.10
2022-08-11T09:42:23.530Z,27.00
2022-08-11T09:44:53.917Z,27.00
2022-08-11T09:47:31.804Z,27.00
2022-08-11T09:50:01.956Z,27.00
2022-08-11T09:53:10.026Z,27.20
2022-08-11T09:55:33.835Z,27.20
2022-08-11T09:58:41.468Z,27.40
2022-08-11T10:01:08.058Z,27.50
2022-08-11T10:03:40.580Z,27.50
2022-08-11T10:06:33.343Z,27.70
2022-08-11T10:09:05.390Z,27.70
2022-08-11T10:11:35.194Z,27.70
2022-08-11T10:14:33.837Z,27.80
2022-08-11T10:17:08.875Z,27.90
2022-08-11T10:19:38.104Z,28.00
2022-08-11T10:22:27.868Z,28.10
2022-08-11T10:25:20.030Z,28.20
2022-08-11T10:28:30.648Z,28.30
2022-08-11T10:31:00.600Z,28.40
2022-08-11T10:33:57.605Z,28.50
2022-08-11T10:36:43.160Z,28.60
2022-08-11T10:39:17.985Z,28.80
2022-08-11T10:42:12.256Z,28.90
2022-08-11T10:44:48.538Z,28.90
2022-08-11T10:47:35.041Z,29.10
2022-08-11T10:50:29.718Z,29.10
2022-08-11T10:53:18.385Z,29.30
2022-08-11T10:58:51.365Z,29.50
2022-08-11T11:01:24.404Z,29.60
2022-08-11T11:03:58.882Z,29.60
2022-08-11T11:06:52.847Z,29.60
2022-08-11T11:09:32.527Z,29.80
2022-08-11T11:12:26.199Z,30.10
2022-08-11T11:15:17.837Z,30.30
2022-08-11T11:18:12.267Z,30.50
2022-08-11T11:20:47.314Z,30.60
2022-08-11T11:23:38.011Z,30.80
2022-08-11T11:26:57.532Z,31.10
2022-08-11T11:30:05.150Z,31.60
2022-08-11T11:32:55.896Z,32.80
2022-08-11T11:35:37.751Z,33.80
2022-08-11T11:38:13.848Z,34.60
2022-08-11T11:40:42.780Z,35.40
2022-08-11T11:43:10.585Z,36.10
2022-08-11T11:45:37.981Z,36.30
2022-08-11T11:48:06.365Z,36.70
2022-08-11T11:50:38.277Z,36.70
2022-08-11T11:53:08.358Z,36.60
2022-08-11T11:55:36.862Z,36.50
2022-08-11T11:58:25.472Z,36.50
2022-08-11T12:01:11.847Z,36.60
2022-08-11T12:03:40.541Z,36.90
2022-08-11T12:06:09.867Z,37.10
2022-08-11T12:08:38.209Z,37.10
2022-08-11T12:11:28.428Z,37.20
2022-08-11T12:14:00.248Z,37.30
2022-08-11T12:16:33.871Z,37.70
2022-08-11T12:19:11.114Z,37.90
2022-08-11T12:22:00.676Z,37.90
2022-08-11T12:24:51.240Z,37.90
2022-08-11T12:27:24.855Z,37.90
2022-08-11T12:30:06.238Z,37.90
2022-08-11T12:32:37.162Z,37.80
2022-08-11T12:35:07.641Z,37.80
2022-08-11T12:37:45.924Z,37.90
2022-08-11T12:41:12.061Z,37.50
2022-08-11T12:43:56.320Z,37.50
2022-08-11T12:46:32.000Z,37.30
2022-08-11T12:49:31.301Z,37.40
2022-08-11T12:52:12.713Z,37.70
2022-08-11T12:55:13.790Z,37.70
2022-08-11T12:58:05.944Z,37.70
2022-08-11T13:00:52.343Z,37.60
2022-08-11T13:03:40.802Z,36.80
2022-08-11T13:06:08.912Z,37.30
2022-08-11T13:08:39.791Z,37.60
2022-08-11T13:11:56.020Z,37.10
2022-08-11T13:14:16.316Z,36.30
2022-08-11T13:17:14.535Z,36.50
2022-08-11T13:19:48.885Z,36.40
2022-08-11T13:22:19.615Z,35.40
2022-08-11T13:24:48.993Z,34.70
2022-08-11T13:27:18.924Z,35.30
2022-08-11T13:29:47.600Z,35.70
2022-08-11T13:32:16.531Z,36.10
2022-08-11T13:34:47.619Z,36.20
2022-08-11T13:37:16.184Z,36.40
2022-08-11T13:39:48.472Z,36.10
2022-08-11T13:42:20.297Z,36.30
2022-08-11T13:44:48.155Z,36.50
2022-08-11T13:47:16.900Z,36.60
2022-08-11T13:49:45.844Z,36.70
2022-08-11T13:52:16.950Z,36.90
2022-08-11T13:54:48.308Z,36.90
2022-08-11T13:58:18.290Z,37.00
2022-08-11T14:00:23.492Z,36.90
2022-08-11T14:02:57.252Z,36.60
2022-08-11T14:05:47.562Z,36.40
2022-08-11T14:08:32.453Z,35.90
2022-08-11T14:12:22.562Z,36.10
2022-08-11T14:14:22.573Z,36.20
2022-08-11T14:16:52.542Z,36.20
2022-08-11T14:19:24.643Z,36.40
2022-08-11T14:22:08.598Z,36.30
2022-08-11T14:24:40.558Z,36.30
2022-08-11T14:28:30.271Z,36.30
2022-08-11T14:30:00.950Z,36.20
2022-08-11T14:32:28.241Z,36.20
2022-08-11T14:34:55.960Z,35.90
2022-08-11T14:37:25.800Z,35.70
2022-08-11T14:40:21.538Z,35.70
2022-08-11T14:43:07.322Z,35.60
2022-08-11T14:45:58.338Z,35.60
2022-08-11T14:48:27.411Z,35.10
2022-08-11T14:50:54.879Z,34.90
2022-08-11T14:53:24.228Z,34.80
2022-08-11T14:56:10.800Z,34.80
2022-08-11T14:58:40.117Z,34.60
2022-08-11T15:01:27.542Z,34.60
2022-08-11T15:04:01.206Z,34.50
2022-08-11T15:06:46.572Z,33.50
2022-08-11T15:09:13.951Z,33.50
2022-08-11T15:12:00.707Z,33.70
2022-08-11T15:14:46.569Z,33.80
2022-08-11T15:17:15.240Z,33.90
2022-08-11T15:20:05.263Z,33.70
2022-08-11T15:22:51.235Z,33.40
2022-08-11T15:25:20.156Z,33.50
2022-08-11T15:28:09.455Z,33.50
2022-08-11T15:30:57.029Z,33.30
2022-08-11T15:33:46.484Z,33.30
2022-08-11T15:36:33.931Z,33.30
2022-08-11T15:39:20.811Z,33.40
2022-08-11T15:45:29.288Z,33.30
2022-08-11T15:48:08.088Z,33.20
2022-08-11T15:50:45.437Z,33.20
2022-08-11T15:53:35.401Z,33.00
2022-08-11T15:56:04.183Z,33.00
2022-08-11T15:59:10.748Z,33.00
2022-08-11T16:02:06.249Z,33.00
2022-08-11T16:04:36.991Z,32.60
2022-08-11T16:07:15.542Z,32.50
2022-08-11T16:10:00.504Z,32.50
2022-08-11T16:12:36.660Z,32.40
2022-08-11T16:15:27.980Z,32.30
2022-08-11T16:18:05.807Z,32.30
2022-08-11T16:20:35.339Z,32.10
2022-08-11T16:23:10.324Z,32.20
2022-08-11T16:27:03.823Z,32.10
2022-08-11T16:28:27.412Z,31.90
2022-08-11T16:30:55.731Z,31.80
2022-08-11T16:33:49.881Z,31.60
2022-08-11T16:36:33.315Z,31.50
2022-08-11T16:39:02.094Z,31.30
2022-08-11T16:41:51.027Z,31.30
2022-08-11T16:44:39.200Z,31.30
2022-08-11T16:47:13.477Z,31.30
2022-08-11T16:49:52.861Z,31.30
2022-08-11T16:52:22.579Z,31.40
2022-08-11T16:54:50.442Z,31.40
2022-08-11T16:57:44.515Z,31.30
2022-08-11T17:00:17.121Z,31.30
2022-08-11T17:03:12.376Z,31.20
2022-08-11T17:06:11.749Z,31.10
2022-08-11T17:09:10.898Z,31.00
2022-08-11T17:12:04.992Z,31.00
2022-08-11T17:15:03.868Z,31.00
2022-08-11T17:17:37.868Z,31.00
2022-08-11T17:20:39.493Z,31.10
2022-08-11T17:23:19.921Z,31.30
2022-08-11T17:26:03.944Z,31.50
2022-08-11T17:28:33.350Z,31.50
2022-08-11T17:31:23.156Z,31.50
2022-08-11T17:34:11.216Z,31.50
2022-08-11T17:36:44.560Z,31.40
2022-08-11T17:39:13.715Z,31.10
2022-08-11T17:42:00.525Z,30.70
2022-08-11T17:44:47.319Z,30.00
2022-08-11T17:47:39.952Z,29.60
2022-08-11T17:50:17.643Z,29.30
2022-08-11T17:53:05.887Z,28.90
2022-08-11T17:55:57.863Z,28.60
2022-08-11T17:58:44.915Z,28.30
2022-08-11T18:01:13.487Z,28.00
2022-08-11T18:03:57.856Z,27.70
2022-08-11T18:06:33.942Z,27.50
2022-08-11T18:09:29.320Z,27.20
2022-08-11T18:12:16.289Z,26.90
2022-08-11T18:15:08.623Z,26.50
2022-08-11T18:17:56.540Z,26.20
2022-08-11T18:20:43.164Z,25.90
2022-08-11T18:23:45.741Z,25.70
2022-08-11T18:26:38.645Z,25.40
2022-08-11T18:29:26.593Z,25.10
2022-08-11T18:32:22.051Z,24.90
2022-08-11T18:35:11.290Z,24.70
2022-08-11T18:38:04.680Z,24.60
2022-08-11T18:40:51.427Z,24.30
2022-08-11T18:43:41.988Z,24.10
2022-08-11T18:46:30.586Z,23.80
2022-08-11T18:49:27.283Z,23.60
2022-08-11T18:52:34.283Z,23.40
2022-08-11T18:55:22.204Z,23.20
2022-08-11T18:58:10.539Z,23.10
2022-08-11T19:00:58.300Z,23.00
2022-08-11T19:03:48.723Z,22.80
2022-08-11T19:06:40.802Z,22.70
2022-08-11T19:09:33.788Z,22.60
2022-08-11T19:12:22.705Z,22.30
2022-08-11T19:15:11.408Z,22.10
2022-08-11T19:18:02.842Z,21.90
2022-08-11T19:20:51.816Z,21.80
2022-08-11T19:23:52.695Z,21.60
2022-08-11T19:26:42.398Z,21.40
2022-08-11T19:30:08.105Z,21.30
2022-08-11T19:32:38.063Z,21.20
2022-08-11T19:35:25.859Z,21.20
2022-08-11T19:38:12.854Z,21.00
2022-08-11T19:40:59.499Z,21.00
2022-08-11T19:43:48.411Z,20.90
2022-08-11T19:46:37.290Z,20.80
2022-08-11T19:49:23.815Z,20.70
2022-08-11T19:52:10.613Z,20.60
2022-08-11T19:54:57.477Z,20.60
2022-08-11T19:57:44.401Z,20.50
2022-08-11T20:00:38.866Z,20.40
2022-08-11T20:03:33.822Z,20.40
2022-08-11T20:06:26.630Z,20.30
2022-08-11T20:09:18.507Z,20.20
2022-08-11T20:12:10.863Z,20.10
2022-08-11T20:14:59.594Z,20.10
2022-08-11T20:17:50.959Z,20.00
2022-08-11T20:20:37.174Z,19.90
2022-08-11T20:23:27.962Z,19.80
2022-08-11T20:26:32.296Z,19.80
2022-08-11T20:29:19.598Z,19.70
2022-08-11T20:32:09.771Z,19.70
2022-08-11T20:34:57.346Z,19.60
2022-08-11T20:37:50.210Z,19.60
2022-08-11T20:40:45.310Z,19.50
2022-08-11T20:44:07.727Z,19.40
2022-08-11T20:46:42.038Z,19.30
2022-08-11T20:52:38.146Z,19.20
2022-08-11T20:55:51.230Z,19.10
2022-08-11T21:01:42.649Z,18.90
2022-08-11T21:04:29.291Z,18.80
2022-08-11T21:07:27.977Z,18.80
2022-08-11T21:10:23.410Z,18.70
2022-08-11T21:13:25.893Z,18.60
2022-08-11T21:16:26.116Z,18.60
2022-08-11T21:20:01.668Z,18.50
2022-08-11T21:23:24.594Z,18.40
2022-08-11T21:26:18.395Z,18.30
2022-08-11T21:29:05.583Z,18.30
2022-08-11T21:31:53.086Z,18.20
2022-08-11T21:34:41.444Z,18.10
2022-08-11T21:37:29.283Z,18.10
2022-08-11T21:40:18.152Z,18.10
2022-08-11T21:43:07.199Z,18.00
2022-08-11T21:45:56.414Z,18.00
2022-08-11T21:48:45.385Z,17.90
2022-08-11T21:51:31.463Z,17.90
2022-08-11T21:54:19.368Z,17.80
2022-08-11T21:57:06.566Z,17.80
2022-08-11T22:00:07.411Z,17.70
2022-08-11T22:02:53.986Z,17.60
2022-08-11T22:05:41.132Z,17.50
2022-08-11T22:08:27.906Z,17.60
2022-08-11T22:11:13.967Z,17.70
2022-08-11T22:14:06.096Z,17.80
2022-08-11T22:16:54.624Z,17.70
2022-08-11T22:19:42.186Z,17.60
2022-08-11T22:22:32.029Z,17.50
2022-08-11T22:25:18.884Z,17.70
2022-08-11T22:28:06.692Z,17.90
2022-08-11T22:30:52.743Z,18.00
2022-08-11T22:33:46.561Z,18.20
2022-08-11T22:36:46.529Z,18.50
2022-08-11T22:39:35.418Z,18.60
2022-08-11T22:42:21.676Z,19.00
2022-08-11T22:45:20.436Z,19.00
2022-08-11T22:48:08.571Z,19.00
2022-08-11T22:50:58.786Z,19.00
2022-08-11T22:53:57.830Z,19.10
2022-08-11T22:56:47.244Z,19.10
2022-08-11T22:59:36.190Z,19.10
2022-08-11T23:02:24.583Z,19.20
2022-08-11T23:05:11.145Z,19.20
2022-08-11T23:07:58.470Z,19.20
2022-08-11T23:10:45.321Z,19.20
2022-08-11T23:13:33.947Z,19.20
2022-08-11T23:16:20.083Z,19.10
2022-08-11T23:19:07.498Z,19.10
2022-08-11T23:21:54.540Z,19.30
2022-08-11T23:24:41.630Z,19.30
2022-08-11T23:27:28.619Z,19.30
2022-08-11T23:30:18.865Z,19.20
2022-08-11T23:33:13.228Z,19.10
2022-08-11T23:36:05.538Z,19.00
2022-08-11T23:38:51.838Z,19.20
2022-08-11T23:41:38.002Z,19.40
2022-08-11T23:44:25.809Z,19.40
2022-08-11T23:47:15.490Z,19.40
2022-08-11T23:50:03.599Z,19.60
2022-08-11T23:52:52.219Z,19.70
2022-08-11T23:55:39.202Z,19.80
2022-08-11T23:58:25.858Z,19.80
